createdAt,value
2023-02-11T00:01:25.936Z,6.07
2023-02-11T00:03:54.418Z,5.05
2023-02-11T00:06:22.408Z,5.20
2023-02-11T00:08:50.421Z,6.10
2023-02-11T00:11:20.308Z,5.93
2023-02-11T00:13:50.070Z,6.13
2023-02-11T00:16:20.124Z,6.75
2023-02-11T00:18:48.836Z,6.70
2023-02-11T00:21:18.958Z,6.87
2023-02-11T00:23:47.898Z,5.63
2023-02-11T00:26:18.442Z,6.30
2023-02-11T00:28:46.809Z,5.88
2023-02-11T00:31:22.027Z,5.38
2023-02-11T00:33:55.724Z,5.50
2023-02-11T00:36:26.604Z,6.10
2023-02-11T00:38:55.960Z,6.53
2023-02-11T00:41:24.379Z,6.18
2023-02-11T00:43:52.576Z,5.63
2023-02-11T00:46:22.319Z,5.30
2023-02-11T00:48:51.770Z,5.47
2023-02-11T00:51:19.738Z,5.95
2023-02-11T00:53:47.723Z,5.47
2023-02-11T00:56:15.748Z,5.88
2023-02-11T00:58:43.690Z,6.25
2023-02-11T01:01:12.555Z,5.57
2023-02-11T01:03:42.384Z,5.90
2023-02-11T01:06:10.746Z,4.90
2023-02-11T01:08:38.802Z,5.50
2023-02-11T01:11:09.073Z,5.53
2023-02-11T01:13:38.249Z,5.30
2023-02-11T01:16:08.758Z,5.60
2023-02-11T01:18:38.034Z,5.55
2023-02-11T01:21:07.740Z,6.60
2023-02-11T01:23:35.788Z,5.40
2023-02-11T01:26:03.807Z,6.25
2023-02-11T01:28:32.173Z,5.32
2023-02-11T01:31:01.882Z,5.88
2023-02-11T01:33:30.066Z,5.43
2023-02-11T01:36:02.420Z,5.78
2023-02-11T01:38:33.365Z,7.57
2023-02-11T01:41:03.244Z,6.63
2023-02-11T01:43:34.208Z,6.30
2023-02-11T01:46:15.245Z,6.00
2023-02-11T01:48:45.615Z,5.78
2023-02-11T01:51:21.977Z,6.05
2023-02-11T01:54:09.577Z,5.82
2023-02-11T01:57:02.125Z,6.40
2023-02-11T01:59:34.371Z,6.60
2023-02-11T02:02:07.955Z,5.90
2023-02-11T02:04:41.047Z,6.47
2023-02-11T02:07:13.220Z,5.38
2023-02-11T02:09:46.654Z,6.38
2023-02-11T02:12:14.678Z,6.30
2023-02-11T02:14:42.913Z,5.80
2023-02-11T02:17:25.059Z,6.05
2023-02-11T02:20:32.530Z,7.20
2023-02-11T02:23:26.402Z,6.10
2023-02-11T02:26:16.442Z,5.70
2023-02-11T02:29:08.608Z,5.80
2023-02-11T02:32:06.677Z,5.43
2023-02-11T02:34:42.931Z,6.57
2023-02-11T02:37:18.375Z,7.22
2023-02-11T02:39:49.736Z,7.20
2023-02-11T02:42:19.344Z,6.65
2023-02-11T02:44:50.480Z,5.95
2023-02-11T02:47:18.501Z,5.40
2023-02-11T02:49:47.861Z,6.78
2023-02-11T02:52:27.053Z,6.47
2023-02-11T02:55:18.444Z,6.97
2023-02-11T02:58:08.722Z,7.07
2023-02-11T03:00:44.237Z,6.60
2023-02-11T03:03:24.628Z,6.50
2023-02-11T03:06:02.197Z,6.18
2023-02-11T03:08:35.448Z,7.07
2023-02-11T03:11:06.171Z,6.53
2023-02-11T03:13:36.970Z,6.30
2023-02-11T03:16:26.381Z,7.29
2023-02-11T03:18:59.308Z,6.95
2023-02-11T03:21:29.729Z,6.35
2023-02-11T03:24:01.808Z,6.60
2023-02-11T03:26:31.946Z,7.10
2023-02-11T03:29:08.145Z,7.00
2023-02-11T03:31:41.521Z,7.13
2023-02-11T03:34:14.522Z,7.68
2023-02-11T03:36:48.321Z,7.97
2023-02-11T03:39:20.508Z,6.82
2023-02-11T03:41:51.126Z,7.05
2023-02-11T03:44:20.880Z,7.30
2023-02-11T03:46:51.598Z,7.40
2023-02-11T03:49:22.921Z,7.55
2023-02-11T03:51:54.121Z,8.55
2023-02-11T03:54:27.667Z,8.57
2023-02-11T03:56:59.235Z,8.73
2023-02-11T03:59:27.321Z,8.18
2023-02-11T04:01:55.877Z,8.00
2023-02-11T04:04:23.805Z,8.05
2023-02-11T04:06:53.246Z,8.70
2023-02-11T04:09:21.316Z,9.20
2023-02-11T04:11:49.222Z,9.85
2023-02-11T04:14:17.191Z,9.38
2023-02-11T04:16:45.259Z,9.20
2023-02-11T04:19:13.366Z,8.98
2023-02-11T04:21:41.314Z,9.40
2023-02-11T04:24:10.706Z,10.07
2023-02-11T04:26:38.757Z,10.10
2023-02-11T04:29:06.875Z,10.20
2023-02-11T04:31:34.873Z,10.82
2023-02-11T04:34:02.864Z,9.82
2023-02-11T04:36:30.955Z,9.75
2023-02-11T04:38:58.962Z,10.80
2023-02-11T04:41:28.303Z,10.68
2023-02-11T04:43:56.334Z,10.73
2023-02-11T04:46:24.382Z,12.70
2023-02-11T04:48:52.692Z,12.10
2023-02-11T04:51:20.700Z,12.98
2023-02-11T04:53:48.735Z,11.30
2023-02-11T04:56:16.818Z,12.55
2023-02-11T04:58:46.274Z,12.40
2023-02-11T05:01:16.568Z,11.93
2023-02-11T05:03:44.787Z,11.20
2023-02-11T05:06:13.172Z,13.48
2023-02-11T05:08:41.243Z,13.68
2023-02-11T05:11:15.508Z,13.35
2023-02-11T05:13:43.483Z,13.52
2023-02-11T05:16:13.058Z,13.90
2023-02-11T05:18:41.573Z,13.80
2023-02-11T05:21:10.953Z,14.35
2023-02-11T05:23:39.619Z,14.05
2023-02-11T05:26:08.255Z,15.00
2023-02-11T05:28:36.783Z,15.50
2023-02-11T05:31:05.280Z,15.07
2023-02-11T05:33:34.999Z,14.73
2023-02-11T05:36:05.832Z,15.50
2023-02-11T05:38:33.816Z,15.35
2023-02-11T05:41:02.330Z,14.88
2023-02-11T05:43:30.363Z,15.90
2023-02-11T05:45:58.386Z,15.65
2023-02-11T05:48:26.328Z,16.08
2023-02-11T05:50:55.631Z,15.75
2023-02-11T05:53:23.657Z,16.15
2023-02-11T05:55:51.964Z,15.63
2023-02-11T05:58:20.144Z,15.90
2023-02-11T06:00:48.172Z,17.13
2023-02-11T06:03:16.567Z,17.30
2023-02-11T06:05:44.935Z,19.45
2023-02-11T06:08:14.365Z,18.13
2023-02-11T06:10:44.932Z,17.52
2023-02-11T06:13:12.941Z,20.30
2023-02-11T06:15:41.226Z,18.90
2023-02-11T06:18:09.682Z,19.93
2023-02-11T06:20:40.746Z,19.52
2023-02-11T06:23:08.671Z,19.92
2023-02-11T06:25:38.403Z,19.52
2023-02-11T06:28:06.453Z,20.88
2023-02-11T06:30:34.440Z,20.83
2023-02-11T06:33:02.410Z,19.88
2023-02-11T06:35:30.443Z,19.67
2023-02-11T06:37:58.379Z,19.85
2023-02-11T06:40:26.353Z,20.90
2023-02-11T06:42:55.732Z,19.80
2023-02-11T06:45:23.836Z,20.65
2023-02-11T06:47:53.391Z,20.50
2023-02-11T06:50:21.535Z,20.33
2023-02-11T06:52:49.549Z,20.30
2023-02-11T06:55:17.633Z,20.65
2023-02-11T06:57:45.742Z,19.33
2023-02-11T07:00:16.282Z,21.55
2023-02-11T07:02:44.475Z,21.03
2023-02-11T07:05:12.643Z,20.25
2023-02-11T07:07:40.652Z,20.50
2023-02-11T07:10:09.369Z,21.02
2023-02-11T07:12:37.381Z,21.30
2023-02-11T07:15:05.802Z,20.17
2023-02-11T07:17:35.583Z,21.08
2023-02-11T07:20:03.658Z,22.83
2023-02-11T07:22:31.724Z,21.35
2023-02-11T07:24:59.709Z,21.67
2023-02-11T07:27:27.687Z,22.15
2023-02-11T07:29:55.741Z,22.15
2023-02-11T07:32:23.834Z,20.00
2023-02-11T07:34:53.279Z,22.38
2023-02-11T07:37:21.463Z,21.88
2023-02-11T07:39:49.457Z,22.90
2023-02-11T07:42:17.460Z,23.40
2023-02-11T07:44:45.432Z,22.10
2023-02-11T07:47:13.396Z,23.23
2023-02-11T07:49:41.374Z,23.80
2023-02-11T07:52:10.700Z,23.17
2023-02-11T07:54:38.708Z,22.42
2023-02-11T07:57:06.660Z,23.17
2023-02-11T07:59:34.803Z,24.52
2023-02-11T08:02:02.774Z,21.85
2023-02-11T08:04:30.768Z,23.17
2023-02-11T08:06:59.264Z,23.80
2023-02-11T08:09:28.724Z,23.58
2023-02-11T08:11:56.683Z,22.95
2023-02-11T08:14:25.280Z,25.30
2023-02-11T08:16:53.329Z,24.67
2023-02-11T08:19:21.296Z,23.70
2023-02-11T08:21:49.287Z,22.70
2023-02-11T08:24:17.739Z,23.33
2023-02-11T08:26:47.016Z,22.48
2023-02-11T08:29:16.516Z,22.88
2023-02-11T08:31:46.605Z,21.92
2023-02-11T08:34:18.230Z,23.60
2023-02-11T08:36:48.186Z,23.80
2023-02-11T08:39:20.530Z,24.73
2023-02-11T08:41:51.923Z,22.17
2023-02-11T08:44:21.253Z,23.20
2023-02-11T08:46:50.250Z,22.67
2023-02-11T08:49:18.479Z,23.67
2023-02-11T08:51:47.729Z,23.70
2023-02-11T08:54:16.069Z,24.40
2023-02-11T08:56:44.842Z,26.45
2023-02-11T08:59:15.440Z,25.30
2023-02-11T09:01:44.282Z,23.10
2023-02-11T09:04:12.488Z,25.08
2023-02-11T09:06:42.476Z,24.38
2023-02-11T09:09:13.552Z,24.50
2023-02-11T09:11:42.674Z,25.00
2023-02-11T09:14:19.597Z,26.90
2023-02-11T09:16:48.099Z,25.65
2023-02-11T09:19:16.230Z,23.65
2023-02-11T09:21:44.580Z,24.60
2023-02-11T09:24:13.291Z,23.83
2023-02-11T09:26:43.562Z,25.52
2023-02-11T09:29:11.568Z,24.75
2023-02-11T09:31:41.246Z,24.20
2023-02-11T09:34:09.599Z,23.70
2023-02-11T09:36:39.655Z,26.02
2023-02-11T09:39:10.495Z,25.20
2023-02-11T09:42:11.639Z,24.05
2023-02-11T09:44:40.691Z,22.20
2023-02-11T09:47:26.802Z,23.70
2023-02-11T09:49:59.971Z,23.67
2023-02-11T09:52:34.620Z,23.70
2023-02-11T09:55:05.869Z,25.80
2023-02-11T09:57:36.270Z,23.08
2023-02-11T10:00:17.689Z,24.50
2023-02-11T10:03:00.372Z,23.25
2023-02-11T10:05:43.866Z,24.77
2023-02-11T10:08:19.955Z,24.10
2023-02-11T10:10:53.381Z,23.15
2023-02-11T10:13:33.986Z,22.27
2023-02-11T10:16:15.160Z,21.52
2023-02-11T10:19:00.268Z,21.77
2023-02-11T10:21:38.113Z,19.00
2023-02-11T10:24:11.761Z,20.80
2023-02-11T10:26:41.757Z,18.40
2023-02-11T10:29:19.900Z,17.80
2023-02-11T10:31:48.712Z,17.30
2023-02-11T10:34:18.115Z,17.40
2023-02-11T10:36:46.856Z,16.42
2023-02-11T10:39:16.813Z,17.33
2023-02-11T10:41:47.243Z,16.42
2023-02-11T10:44:24.032Z,16.40
2023-02-11T10:46:53.260Z,13.90
2023-02-11T10:49:38.539Z,15.30
2023-02-11T10:52:25.138Z,15.50
2023-02-11T10:55:05.275Z,14.88
2023-02-11T10:57:36.675Z,15.52
2023-02-11T11:00:20.675Z,14.80
2023-02-11T11:02:55.584Z,15.20
2023-02-11T11:05:34.176Z,14.00
2023-02-11T11:08:05.821Z,13.73
2023-02-11T11:10:43.333Z,13.60
2023-02-11T11:13:32.428Z,13.13
2023-02-11T11:16:10.995Z,14.32
2023-02-11T11:18:39.135Z,14.43
2023-02-11T11:21:14.619Z,14.00
2023-02-11T11:23:49.942Z,13.75
2023-02-11T11:26:18.987Z,13.52
2023-02-11T11:28:57.647Z,14.18
2023-02-11T11:31:29.803Z,13.80
2023-02-11T11:34:00.554Z,13.27
2023-02-11T11:36:37.011Z,12.57
2023-02-11T11:39:20.110Z,11.88
2023-02-11T11:41:53.450Z,12.80
2023-02-11T11:44:27.765Z,12.05
2023-02-11T11:47:18.009Z,12.40
2023-02-11T11:49:52.170Z,12.73
2023-02-11T11:52:38.561Z,12.15
2023-02-11T11:55:15.494Z,11.80
2023-02-11T11:57:44.436Z,12.60
2023-02-11T12:00:18.456Z,13.15
2023-02-11T12:03:11.135Z,12.80
2023-02-11T12:05:46.340Z,13.77
2023-02-11T12:08:24.858Z,13.83
2023-02-11T12:11:11.930Z,12.18
2023-02-11T12:13:50.400Z,13.23
2023-02-11T12:16:29.002Z,12.82
2023-02-11T12:19:32.623Z,12.55
2023-02-11T12:22:08.779Z,12.50
2023-02-11T12:24:54.180Z,12.13
2023-02-11T12:27:34.178Z,12.75
2023-02-11T12:30:12.467Z,13.48
2023-02-11T12:32:50.190Z,12.05
2023-02-11T12:35:29.242Z,11.80
2023-02-11T12:38:16.149Z,12.10
2023-02-11T12:40:50.430Z,12.67
2023-02-11T12:43:22.186Z,11.80
2023-02-11T12:46:03.510Z,12.20
2023-02-11T12:48:47.189Z,11.60
2023-02-11T12:51:25.026Z,11.82
2023-02-11T12:54:15.713Z,12.20
2023-02-11T12:56:49.724Z,12.00
2023-02-11T12:59:39.417Z,10.95
2023-02-11T13:02:16.985Z,10.43
2023-02-11T13:04:51.292Z,10.47
2023-02-11T13:07:25.866Z,9.70
2023-02-11T13:09:59.809Z,10.25
2023-02-11T13:12:50.965Z,10.70
2023-02-11T13:15:19.390Z,11.00
2023-02-11T13:17:58.113Z,10.35
2023-02-11T13:20:38.384Z,10.90
2023-02-11T13:23:16.398Z,10.18
2023-02-11T13:25:51.367Z,10.00
2023-02-11T13:28:34.808Z,9.77
2023-02-11T13:31:03.644Z,9.60
2023-02-11T13:33:34.584Z,10.45
2023-02-11T13:36:20.542Z,10.75
2023-02-11T13:38:55.228Z,11.25
2023-02-11T13:41:28.691Z,10.50
2023-02-11T13:44:22.464Z,10.40
2023-02-11T13:46:55.600Z,9.57
2023-02-11T13:49:26.389Z,10.30
2023-02-11T13:51:55.656Z,10.50
2023-02-11T13:54:34.086Z,9.90
2023-02-11T13:57:30.473Z,9.23
2023-02-11T14:00:01.018Z,10.45
2023-02-11T14:02:50.372Z,11.10
2023-02-11T14:05:48.131Z,10.10
2023-02-11T14:08:39.771Z,9.43
2023-02-11T14:11:24.250Z,9.10
2023-02-11T14:14:24.849Z,9.73
2023-02-11T14:17:31.825Z,9.25
2023-02-11T14:20:02.114Z,9.40
2023-02-11T14:22:32.589Z,9.25
2023-02-11T14:25:01.960Z,9.60
2023-02-11T14:27:34.289Z,9.83
2023-02-11T14:30:25.293Z,10.23
2023-02-11T14:33:15.087Z,9.07
2023-02-11T14:35:52.984Z,9.60
2023-02-11T14:38:27.856Z,10.10
2023-02-11T14:41:03.103Z,9.70
2023-02-11T14:43:36.100Z,9.43
2023-02-11T14:46:04.577Z,9.00
2023-02-11T14:48:37.408Z,8.88
2023-02-11T14:51:09.782Z,9.50
2023-02-11T14:53:41.739Z,9.77
2023-02-11T14:56:19.724Z,9.68
2023-02-11T14:58:49.143Z,9.30
2023-02-11T15:01:31.034Z,9.68
2023-02-11T15:04:01.386Z,9.93
2023-02-11T15:06:32.943Z,10.10
2023-02-11T15:09:05.039Z,9.80
2023-02-11T15:11:39.789Z,9.32
2023-02-11T15:14:11.506Z,10.00
2023-02-11T15:16:45.209Z,10.25
2023-02-11T15:19:22.727Z,9.75
2023-02-11T15:21:51.710Z,8.88
2023-02-11T15:24:25.681Z,8.35
2023-02-11T15:27:03.972Z,8.40
2023-02-11T15:29:37.870Z,7.88
2023-02-11T15:32:07.922Z,8.15
2023-02-11T15:34:37.979Z,8.18
2023-02-11T15:37:06.333Z,8.90
2023-02-11T15:39:37.692Z,10.82
2023-02-11T15:42:20.229Z,12.88
2023-02-11T15:44:56.297Z,11.50
2023-02-11T15:47:24.948Z,74.68
2023-02-11T15:49:54.375Z,59.83
2023-02-11T15:52:27.760Z,50.90
2023-02-11T15:54:59.423Z,61.47
2023-02-11T15:57:27.687Z,48.38
2023-02-11T15:59:56.814Z,31.60
2023-02-11T16:02:32.476Z,21.98
2023-02-11T16:05:04.139Z,18.52
2023-02-11T16:07:47.362Z,34.83
2023-02-11T16:10:20.607Z,28.40
2023-02-11T16:12:57.314Z,23.17
2023-02-11T16:15:56.503Z,20.02
2023-02-11T16:18:37.692Z,14.68
2023-02-11T16:21:13.308Z,12.00
2023-02-11T16:23:43.104Z,11.80
2023-02-11T16:26:20.787Z,11.30
2023-02-11T16:28:49.081Z,10.10
2023-02-11T16:31:17.283Z,9.45
2023-02-11T16:33:45.341Z,9.17
2023-02-11T16:36:17.278Z,9.00
2023-02-11T16:38:45.313Z,8.27
2023-02-11T16:41:13.262Z,8.57
2023-02-11T16:43:41.364Z,8.35
2023-02-11T16:46:09.989Z,9.15
2023-02-11T16:48:39.201Z,9.25
2023-02-11T16:51:09.334Z,9.15
2023-02-11T16:53:38.662Z,8.98
2023-02-11T16:56:07.046Z,8.43
2023-02-11T16:58:35.119Z,9.00
2023-02-11T17:01:03.339Z,10.13
2023-02-11T17:03:36.207Z,12.50
2023-02-11T17:06:05.760Z,13.20
2023-02-11T17:08:34.083Z,14.57
2023-02-11T17:11:03.684Z,11.98
2023-02-11T17:13:31.880Z,10.13
2023-02-11T17:16:00.138Z,9.70
2023-02-11T17:18:28.186Z,9.73
2023-02-11T17:20:56.154Z,9.60
2023-02-11T17:23:24.115Z,10.27
2023-02-11T17:25:57.591Z,9.10
2023-02-11T17:28:27.061Z,9.18
2023-02-11T17:30:55.194Z,9.20
2023-02-11T17:33:23.610Z,9.35
2023-02-11T17:35:52.017Z,9.00
2023-02-11T17:38:20.225Z,9.57
2023-02-11T17:40:57.363Z,10.13
2023-02-11T17:43:26.792Z,9.50
2023-02-11T17:45:54.954Z,9.60
2023-02-11T17:48:23.055Z,9.88
2023-02-11T17:50:51.311Z,8.95
2023-02-11T17:53:19.366Z,9.60
2023-02-11T17:55:47.374Z,9.75
2023-02-11T17:58:15.359Z,9.20
2023-02-11T18:00:44.681Z,9.68
2023-02-11T18:03:12.620Z,10.60
2023-02-11T18:05:40.632Z,10.43
2023-02-11T18:08:09.092Z,10.70
2023-02-11T18:10:37.055Z,9.33
2023-02-11T18:13:14.311Z,9.97
2023-02-11T18:15:42.347Z,9.90
2023-02-11T18:18:11.718Z,9.97
2023-02-11T18:20:40.664Z,9.40
2023-02-11T18:23:08.883Z,9.00
2023-02-11T18:25:36.895Z,10.00
2023-02-11T18:28:05.039Z,9.80
2023-02-11T18:30:33.740Z,11.20
2023-02-11T18:33:01.817Z,10.73
2023-02-11T18:35:31.175Z,10.27
2023-02-11T18:37:59.138Z,10.50
2023-02-11T18:40:27.152Z,9.93
2023-02-11T18:42:55.205Z,10.32
2023-02-11T18:45:23.953Z,10.27
2023-02-11T18:47:51.916Z,10.45
2023-02-11T18:50:21.965Z,10.25
2023-02-11T18:52:51.402Z,11.00
2023-02-11T18:55:23.502Z,11.77
2023-02-11T18:57:52.654Z,12.30
2023-02-11T19:00:21.712Z,10.98
2023-02-11T19:02:50.005Z,10.40
2023-02-11T19:05:18.155Z,11.18
2023-02-11T19:07:46.344Z,11.13
2023-02-11T19:10:15.699Z,10.80
2023-02-11T19:12:43.744Z,12.38
2023-02-11T19:15:11.932Z,12.25
2023-02-11T19:17:39.928Z,11.73
2023-02-11T19:20:09.422Z,12.48
2023-02-11T19:22:37.440Z,12.50
2023-02-11T19:25:05.919Z,12.07
2023-02-11T19:27:35.487Z,11.30
2023-02-11T19:30:03.508Z,11.13
2023-02-11T19:32:31.881Z,11.25
2023-02-11T19:34:59.832Z,11.52
2023-02-11T19:37:27.860Z,12.05
2023-02-11T19:39:55.917Z,12.82
2023-02-11T19:42:25.892Z,12.00
2023-02-11T19:44:57.211Z,13.20
2023-02-11T19:47:27.765Z,13.80
2023-02-11T19:49:55.884Z,13.50
2023-02-11T19:52:23.854Z,13.63
2023-02-11T19:54:51.953Z,13.75
2023-02-11T19:57:19.905Z,13.40
2023-02-11T19:59:47.875Z,13.55
2023-02-11T20:02:17.244Z,14.02
2023-02-11T20:04:46.266Z,14.38
2023-02-11T20:07:14.199Z,14.80
2023-02-11T20:09:42.672Z,14.80
2023-02-11T20:12:11.987Z,14.77
2023-02-11T20:14:40.295Z,13.40
2023-02-11T20:17:08.250Z,12.35
2023-02-11T20:19:37.704Z,13.90
2023-02-11T20:22:05.657Z,13.35
2023-02-11T20:24:33.664Z,13.52
2023-02-11T20:27:01.694Z,13.30
2023-02-11T20:29:31.830Z,14.30
2023-02-11T20:32:00.215Z,15.50
2023-02-11T20:34:29.479Z,17.35
2023-02-11T20:36:59.319Z,16.67
2023-02-11T20:39:27.873Z,15.00
2023-02-11T20:41:56.583Z,15.80
2023-02-11T20:44:24.895Z,16.17
2023-02-11T20:46:54.025Z,17.23
2023-02-11T20:49:24.680Z,18.40
2023-02-11T20:51:53.678Z,19.40
2023-02-11T20:54:24.627Z,20.50
2023-02-11T20:56:53.885Z,18.90
2023-02-11T20:59:22.242Z,18.85
2023-02-11T21:01:53.457Z,16.90
2023-02-11T21:04:23.127Z,17.77
2023-02-11T21:06:53.212Z,17.92
2023-02-11T21:09:24.112Z,17.48
2023-02-11T21:11:53.077Z,16.85
2023-02-11T21:14:24.135Z,16.85
2023-02-11T21:16:52.626Z,16.88
2023-02-11T21:19:21.286Z,17.08
2023-02-11T21:21:49.333Z,18.30
2023-02-11T21:24:17.385Z,17.60
2023-02-11T21:26:46.725Z,16.25
2023-02-11T21:29:14.813Z,17.20
2023-02-11T21:31:43.013Z,17.05
2023-02-11T21:34:11.773Z,16.92
2023-02-11T21:36:40.030Z,17.02
2023-02-11T21:39:08.901Z,18.75
2023-02-11T21:41:36.911Z,18.80
2023-02-11T21:44:06.323Z,18.27
2023-02-11T21:46:34.413Z,18.02
2023-02-11T21:49:02.454Z,17.00
2023-02-11T21:51:30.548Z,17.13
2023-02-11T21:54:01.146Z,17.33
2023-02-11T21:56:30.631Z,17.03
2023-02-11T21:59:00.199Z,16.48
2023-02-11T22:01:31.595Z,17.05
2023-02-11T22:04:00.383Z,17.92
2023-02-11T22:06:30.949Z,17.43
2023-02-11T22:08:59.704Z,17.80
2023-02-11T22:11:27.659Z,15.85
2023-02-11T22:13:57.808Z,16.97
2023-02-11T22:16:26.942Z,16.58
2023-02-11T22:18:58.507Z,16.23
2023-02-11T22:21:27.577Z,17.10
2023-02-11T22:23:56.538Z,17.27
2023-02-11T22:26:26.448Z,16.67
2023-02-11T22:28:55.893Z,17.90
2023-02-11T22:31:26.198Z,18.27
2023-02-11T22:33:54.412Z,17.17
2023-02-11T22:36:25.683Z,16.92
2023-02-11T22:38:54.463Z,18.88
2023-02-11T22:41:23.800Z,17.67
2023-02-11T22:43:51.778Z,17.25
2023-02-11T22:46:20.655Z,17.52
2023-02-11T22:48:49.950Z,18.10
2023-02-11T22:51:20.400Z,17.98
2023-02-11T22:53:53.843Z,17.33
2023-02-11T22:56:22.063Z,16.50
2023-02-11T22:58:50.651Z,17.48
2023-02-11T23:01:19.248Z,16.95
2023-02-11T23:03:47.368Z,16.92
2023-02-11T23:06:15.564Z,16.50
2023-02-11T23:08:43.910Z,16.20
2023-02-11T23:11:15.511Z,16.33
2023-02-11T23:13:44.578Z,16.90
2023-02-11T23:16:14.829Z,17.23
2023-02-11T23:18:44.584Z,16.25
2023-02-11T23:21:15.930Z,16.27
2023-02-11T23:23:44.202Z,17.17
2023-02-11T23:26:16.435Z,16.00
2023-02-11T23:28:45.957Z,15.45
2023-02-11T23:31:16.229Z,15.38
2023-02-11T23:33:44.529Z,15.95
2023-02-11T23:36:12.739Z,16.13
2023-02-11T23:38:40.818Z,16.33
2023-02-11T23:41:08.930Z,16.70
2023-02-11T23:43:38.332Z,15.60
2023-02-11T23:46:07.134Z,15.60
2023-02-11T23:48:36.056Z,15.50
2023-02-11T23:51:04.386Z,16.15
2023-02-11T23:53:32.393Z,15.60
2023-02-11T23:56:00.395Z,16.93
2023-02-11T23:58:28.400Z,15.50
